Wylde Swan — PIWS — position and weather

sailwx.info

Track history (hours):
 
Tides and Currents Weather Stations Pressure Air Temp Water Temp Dewpoint Dewpoint Depression Visibility Wind Speed Wind Dir Waves Ship Positions

Wylde Swan

Last reported at 2019-Aug-24 08:07 UTC. Time now 2019-Aug-24 19:53 UTC.
Position N 59°11' W 002°34'.

Length 45 m; draft 3.4 m.

Type: Sailing vessel. MMSI: 244074000.

Date/timePositionNaut miles runAvg speedWind from/ knotsBaromVisibWave heightAir tempDewpointWater temp
2019-Aug-24 08:07N 59°11' W 002°34'1 5.9
2019-Aug-24 07:59N 59°10' W 002°35'2 2.8
2019-Aug-24 07:16N 59°09' W 002°36'0 0.0
2019-Aug-24 06:58N 59°09' W 002°36'0 0.0
2019-Aug-24 06:28N 59°09' W 002°36'0 0.0
2019-Aug-24 05:58N 59°09' W 002°36'0 0.0
2019-Aug-24 05:25N 59°09' W 002°36'0 0.0
2019-Aug-24 04:55N 59°09' W 002°36'0 0.0
2019-Aug-24 04:16N 59°09' W 002°36'0 0.0
2019-Aug-24 03:58N 59°09' W 002°36'0 0.0
2019-Aug-24 03:28N 59°09' W 002°36'0 0.0
2019-Aug-24 02:58N 59°09' W 002°36'0 0.0
2019-Aug-24 02:28N 59°09' W 002°36'0 0.0
2019-Aug-24 01:52N 59°09' W 002°36'0 0.0
2019-Aug-24 01:25N 59°09' W 002°36'0 0.0
2019-Aug-24 00:55N 59°09' W 002°36'0 0.0
2019-Aug-24 00:28N 59°09' W 002°36'0 0.0
2019-Aug-23 23:55N 59°09' W 002°36'0 0.0
2019-Aug-23 23:13N 59°09' W 002°36'0 0.0
2019-Aug-23 22:52N 59°09' W 002°36'0 0.0
2019-Aug-23 22:22N 59°09' W 002°36'0 0.0
2019-Aug-23 21:52N 59°09' W 002°36'0 0.0
2019-Aug-23 21:13N 59°09' W 002°36'0 0.0
2019-Aug-23 20:58N 59°09' W 002°36'0 0.0
2019-Aug-23 20:28N 59°09' W 002°36'0 0.0
2019-Aug-23 19:58N 59°09' W 002°36'0 0.0
2019-Aug-23 19:28N 59°09' W 002°36'0 0.0
2019-Aug-23 18:55N 59°09' W 002°36'0 0.0
2019-Aug-23 18:16N 59°09' W 002°36'0 0.0
2019-Aug-23 17:55N 59°09' W 002°36'0 0.0
2019-Aug-23 17:22N 59°09' W 002°36'0 0.0
2019-Aug-23 17:00N 59°09' W 002°36'1 2.8
2019-Aug-23 16:30N 59°10' W 002°35'3 5.1
2019-Aug-23 16:00N 59°08' W 002°32'4 6.3
2019-Aug-23 15:25N 59°05' W 002°30'3 6.6
2019-Aug-23 15:00N 59°02' W 002°29'4 7.1
2019-Aug-23 14:28N 58°58' W 002°30'3 7.0
2019-Aug-23 13:59N 58°56' W 002°34'3 6.9
2019-Aug-23 13:30N 58°53' W 002°38'4 7.9
2019-Aug-23 13:00N 58°50' W 002°43'4 7.8
2019-Aug-23 12:30N 58°47' W 002°48'4 7.1
2019-Aug-23 12:00N 58°44' W 002°52'4 8.8
2019-Aug-23 11:30N 58°43' W 003°00'4 7.6
2019-Aug-23 11:00N 58°43' W 003°08'4 8.2
2019-Aug-23 10:30N 58°42' W 003°15'4 8.3
2019-Aug-23 10:00N 58°41' W 003°23'4 8.0
2019-Aug-23 09:30N 58°38' W 003°29'3 0.1
2019-Aug-22 07:09N 58°37' W 003°32'1 5.8
2019-Aug-22 07:00N 58°37' W 003°31'2 5.0
2019-Aug-22 06:30N 58°39' W 003°29'3 6.2
2019-Aug-22 06:00N 58°42' W 003°25'3 6.8
2019-Aug-22 05:30N 58°42' W 003°18'4 7.8
2019-Aug-22 05:00N 58°43' W 003°11'5 9.1
2019-Aug-22 04:30N 58°42' W 003°02'4 7.2
2019-Aug-22 04:00N 58°39' W 002°58'3 5.5
2019-Aug-22 03:30N 58°37' W 002°54'2 4.0
2019-Aug-22 03:00N 58°36' W 002°51'2 3.9
2019-Aug-22 02:30N 58°34' W 002°49'2 4.0
2019-Aug-22 02:00N 58°33' W 002°47'2 4.4
2019-Aug-22 01:30N 58°31' W 002°44'2 4.8
2019-Aug-22 01:00N 58°30' W 002°39'3 5.1
2019-Aug-22 00:25N 58°29' W 002°34'2 5.1
2019-Aug-22 00:00N 58°29' W 002°30'  
2019-Aug-15 16:55N 56°51' E 007°38'72 5.8
2019-Aug-15 04:25N 57°33' E 009°26'25 6.3
2019-Aug-15 00:26N 57°43' E 010°10'3 5.8
2019-Aug-14 23:59N 57°44' E 010°14'3 5.6
2019-Aug-14 23:30N 57°45' E 010°19'3 5.3
2019-Aug-14 23:00N 57°45' E 010°24'2 4.8
2019-Aug-14 22:30N 57°46' E 010°29'2 4.4
2019-Aug-14 22:01N 57°46' E 010°33'2 3.6
2019-Aug-14 21:31N 57°46' E 010°36'2 3.4
2019-Aug-14 21:00N 57°46' E 010°39'2 4.2
2019-Aug-14 20:31N 57°46' E 010°43'2 4.3
2019-Aug-14 20:01N 57°44' E 010°43'3 5.4
2019-Aug-14 19:31N 57°43' E 010°38'1 2.3
2019-Aug-14 18:55N 57°43' E 010°35'0 0.0
2019-Aug-14 18:28N 57°43' E 010°35'0 0.0
2019-Aug-14 17:58N 57°43' E 010°35'0 0.0
2019-Aug-14 17:28N 57°43' E 010°35'0 0.0
2019-Aug-14 16:55N 57°43' E 010°35'0 0.0
2019-Aug-14 16:28N 57°43' E 010°35'0 0.0
2019-Aug-14 15:58N 57°43' E 010°35'0 0.0
2019-Aug-14 15:28N 57°43' E 010°35'0 0.0
2019-Aug-14 14:58N 57°43' E 010°35'0 0.0
2019-Aug-14 14:28N 57°43' E 010°35'0 0.0
2019-Aug-14 13:58N 57°43' E 010°35'0 0.0
2019-Aug-14 13:28N 57°43' E 010°35'0 0.0
2019-Aug-14 12:58N 57°43' E 010°35'0 0.0
2019-Aug-14 12:28N 57°43' E 010°35'0 0.0
2019-Aug-14 11:58N 57°43' E 010°35'0 0.0
2019-Aug-14 11:28N 57°43' E 010°35'0 0.0
2019-Aug-14 10:58N 57°43' E 010°35'0 0.0
2019-Aug-14 10:25N 57°43' E 010°35'0 0.0
2019-Aug-14 09:58N 57°43' E 010°35'0 0.0
2019-Aug-14 09:28N 57°43' E 010°35'0 0.0
2019-Aug-14 08:55N 57°43' E 010°35'0 0.0
2019-Aug-14 08:28N 57°43' E 010°35'  
Track history (hours):
 
Tides and Currents Weather Stations Pressure Air Temp Water Temp Dewpoint Dewpoint Depression Visibility Wind Speed Wind Dir Waves Ship Positions

Wylde Swan

Last reported at 2019-Aug-24 08:07 UTC. Time now 2019-Aug-24 19:53 UTC.
Position N 59°11' W 002°34'.

Length 45 m; draft 3.4 m.

Type: Sailing vessel. MMSI: 244074000.

Date/timePositionNaut miles runAvg speedWind from/ knotsBaromVisibWave heightAir tempDewpointWater temp
2019-Aug-24 08:07N 59°11' W 002°34'1 5.9
2019-Aug-24 07:59N 59°10' W 002°35'2 2.8
2019-Aug-24 07:16N 59°09' W 002°36'0 0.0
2019-Aug-24 06:58N 59°09' W 002°36'0 0.0
2019-Aug-24 06:28N 59°09' W 002°36'0 0.0
2019-Aug-24 05:58N 59°09' W 002°36'0 0.0
2019-Aug-24 05:25N 59°09' W 002°36'0 0.0
2019-Aug-24 04:55N 59°09' W 002°36'0 0.0
2019-Aug-24 04:16N 59°09' W 002°36'0 0.0
2019-Aug-24 03:58N 59°09' W 002°36'0 0.0
2019-Aug-24 03:28N 59°09' W 002°36'0 0.0
2019-Aug-24 02:58N 59°09' W 002°36'0 0.0
2019-Aug-24 02:28N 59°09' W 002°36'0 0.0
2019-Aug-24 01:52N 59°09' W 002°36'0 0.0
2019-Aug-24 01:25N 59°09' W 002°36'0 0.0
2019-Aug-24 00:55N 59°09' W 002°36'0 0.0
2019-Aug-24 00:28N 59°09' W 002°36'0 0.0
2019-Aug-23 23:55N 59°09' W 002°36'0 0.0
2019-Aug-23 23:13N 59°09' W 002°36'0 0.0
2019-Aug-23 22:52N 59°09' W 002°36'0 0.0
2019-Aug-23 22:22N 59°09' W 002°36'0 0.0
2019-Aug-23 21:52N 59°09' W 002°36'0 0.0
2019-Aug-23 21:13N 59°09' W 002°36'0 0.0
2019-Aug-23 20:58N 59°09' W 002°36'0 0.0
2019-Aug-23 20:28N 59°09' W 002°36'0 0.0
2019-Aug-23 19:58N 59°09' W 002°36'0 0.0
2019-Aug-23 19:28N 59°09' W 002°36'0 0.0
2019-Aug-23 18:55N 59°09' W 002°36'0 0.0
2019-Aug-23 18:16N 59°09' W 002°36'0 0.0
2019-Aug-23 17:55N 59°09' W 002°36'0 0.0
2019-Aug-23 17:22N 59°09' W 002°36'0 0.0
2019-Aug-23 17:00N 59°09' W 002°36'1 2.8
2019-Aug-23 16:30N 59°10' W 002°35'3 5.1
2019-Aug-23 16:00N 59°08' W 002°32'4 6.3
2019-Aug-23 15:25N 59°05' W 002°30'3 6.6
2019-Aug-23 15:00N 59°02' W 002°29'4 7.1
2019-Aug-23 14:28N 58°58' W 002°30'3 7.0
2019-Aug-23 13:59N 58°56' W 002°34'3 6.9
2019-Aug-23 13:30N 58°53' W 002°38'4 7.9
2019-Aug-23 13:00N 58°50' W 002°43'4 7.8
2019-Aug-23 12:30N 58°47' W 002°48'4 7.1
2019-Aug-23 12:00N 58°44' W 002°52'4 8.8
2019-Aug-23 11:30N 58°43' W 003°00'4 7.6
2019-Aug-23 11:00N 58°43' W 003°08'4 8.2
2019-Aug-23 10:30N 58°42' W 003°15'4 8.3
2019-Aug-23 10:00N 58°41' W 003°23'4 8.0
2019-Aug-23 09:30N 58°38' W 003°29'3 0.1
2019-Aug-22 07:09N 58°37' W 003°32'1 5.8
2019-Aug-22 07:00N 58°37' W 003°31'2 5.0
2019-Aug-22 06:30N 58°39' W 003°29'3 6.2
2019-Aug-22 06:00N 58°42' W 003°25'3 6.8
2019-Aug-22 05:30N 58°42' W 003°18'4 7.8
2019-Aug-22 05:00N 58°43' W 003°11'5 9.1
2019-Aug-22 04:30N 58°42' W 003°02'4 7.2
2019-Aug-22 04:00N 58°39' W 002°58'3 5.5
2019-Aug-22 03:30N 58°37' W 002°54'2 4.0
2019-Aug-22 03:00N 58°36' W 002°51'2 3.9
2019-Aug-22 02:30N 58°34' W 002°49'2 4.0
2019-Aug-22 02:00N 58°33' W 002°47'2 4.4
2019-Aug-22 01:30N 58°31' W 002°44'2 4.8
2019-Aug-22 01:00N 58°30' W 002°39'3 5.1
2019-Aug-22 00:25N 58°29' W 002°34'2 5.1
2019-Aug-22 00:00N 58°29' W 002°30'  
2019-Aug-15 16:55N 56°51' E 007°38'72 5.8
2019-Aug-15 04:25N 57°33' E 009°26'25 6.3
2019-Aug-15 00:26N 57°43' E 010°10'3 5.8
2019-Aug-14 23:59N 57°44' E 010°14'3 5.6
2019-Aug-14 23:30N 57°45' E 010°19'3 5.3
2019-Aug-14 23:00N 57°45' E 010°24'2 4.8
2019-Aug-14 22:30N 57°46' E 010°29'2 4.4
2019-Aug-14 22:01N 57°46' E 010°33'2 3.6
2019-Aug-14 21:31N 57°46' E 010°36'2 3.4
2019-Aug-14 21:00N 57°46' E 010°39'2 4.2
2019-Aug-14 20:31N 57°46' E 010°43'2 4.3
2019-Aug-14 20:01N 57°44' E 010°43'3 5.4
2019-Aug-14 19:31N 57°43' E 010°38'1 2.3
2019-Aug-14 18:55N 57°43' E 010°35'0 0.0
2019-Aug-14 18:28N 57°43' E 010°35'0 0.0
2019-Aug-14 17:58N 57°43' E 010°35'0 0.0
2019-Aug-14 17:28N 57°43' E 010°35'0 0.0
2019-Aug-14 16:55N 57°43' E 010°35'0 0.0
2019-Aug-14 16:28N 57°43' E 010°35'0 0.0
2019-Aug-14 15:58N 57°43' E 010°35'0 0.0
2019-Aug-14 15:28N 57°43' E 010°35'0 0.0
2019-Aug-14 14:58N 57°43' E 010°35'0 0.0
2019-Aug-14 14:28N 57°43' E 010°35'0 0.0
2019-Aug-14 13:58N 57°43' E 010°35'0 0.0
2019-Aug-14 13:28N 57°43' E 010°35'0 0.0
2019-Aug-14 12:58N 57°43' E 010°35'0 0.0
2019-Aug-14 12:28N 57°43' E 010°35'0 0.0
2019-Aug-14 11:58N 57°43' E 010°35'0 0.0
2019-Aug-14 11:28N 57°43' E 010°35'0 0.0
2019-Aug-14 10:58N 57°43' E 010°35'0 0.0
2019-Aug-14 10:25N 57°43' E 010°35'0 0.0
2019-Aug-14 09:58N 57°43' E 010°35'0 0.0
2019-Aug-14 09:28N 57°43' E 010°35'0 0.0
2019-Aug-14 08:55N 57°43' E 010°35'0 0.0
2019-Aug-14 08:28N 57°43' E 010°35'  

Dump ship's entire track history